createdAt,value
2019-03-06T00:00:38.388Z,95.68
2019-03-06T00:01:36.891Z,95.68
2019-03-06T00:02:35.247Z,94.75
2019-03-06T00:03:35.092Z,94.85
2019-03-06T00:04:35.058Z,94.43
2019-03-06T00:05:35.063Z,94.85
2019-03-06T00:06:34.983Z,93.71
2019-03-06T00:07:34.956Z,93.91
2019-03-06T00:08:34.916Z,93.91
2019-03-06T00:09:34.881Z,93.81
2019-03-06T00:10:34.849Z,94.02
2019-03-06T00:11:34.832Z,94.02
2019-03-06T00:12:34.770Z,93.50
2019-03-06T00:13:34.735Z,93.08
2019-03-06T00:14:34.708Z,93.40
2019-03-06T00:15:35.284Z,94.43
2019-03-06T00:16:34.654Z,94.43
2019-03-06T00:17:34.594Z,93.50
2019-03-06T00:18:34.559Z,93.60
2019-03-06T00:19:34.538Z,94.33
2019-03-06T00:20:34.491Z,94.23
2019-03-06T00:21:34.474Z,94.75
2019-03-06T00:22:34.423Z,95.06
2019-03-06T00:23:34.386Z,94.85
2019-03-06T00:24:34.358Z,94.75
2019-03-06T00:25:34.314Z,94.33
2019-03-06T00:26:34.332Z,94.12
2019-03-06T00:27:34.248Z,94.12
2019-03-06T00:28:34.207Z,93.91
2019-03-06T00:29:34.175Z,93.81
2019-03-06T00:30:34.135Z,93.71
2019-03-06T00:31:34.147Z,93.50
2019-03-06T00:32:34.063Z,93.60
2019-03-06T00:33:34.028Z,92.87
2019-03-06T00:34:34.000Z,93.12
2019-03-06T00:35:34.787Z,94.06
2019-03-06T00:36:33.954Z,93.75
2019-03-06T00:37:33.892Z,94.17
2019-03-06T00:38:33.855Z,94.06
2019-03-06T00:39:33.824Z,94.06
2019-03-06T00:40:33.785Z,94.06
2019-03-06T00:41:33.826Z,94.52
2019-03-06T00:42:33.709Z,94.00
2019-03-06T00:43:33.695Z,94.17
2019-03-06T00:44:33.646Z,94.21
2019-03-06T00:45:33.611Z,94.27
2019-03-06T00:46:33.610Z,94.00
2019-03-06T00:47:33.536Z,94.21
2019-03-06T00:48:33.508Z,94.10
2019-03-06T00:49:33.464Z,93.69
2019-03-06T00:50:34.341Z,94.63
2019-03-06T00:51:34.286Z,94.84
2019-03-06T00:52:33.401Z,94.31
2019-03-06T00:53:34.296Z,94.21
2019-03-06T00:54:33.287Z,94.42
2019-03-06T00:55:33.258Z,94.27
2019-03-06T00:56:33.219Z,94.21
2019-03-06T00:57:33.209Z,94.10
2019-03-06T00:58:33.141Z,94.21
2019-03-06T00:59:33.786Z,94.31
2019-03-06T01:00:33.083Z,94.63
2019-03-06T01:01:33.791Z,94.00
2019-03-06T01:02:33.032Z,94.52
2019-03-06T01:03:33.793Z,94.63
2019-03-06T01:04:32.939Z,94.10
2019-03-06T01:05:33.789Z,94.10
2019-03-06T01:06:33.786Z,94.21
2019-03-06T01:07:32.850Z,94.37
2019-03-06T01:08:32.792Z,94.21
2019-03-06T01:09:32.757Z,94.52
2019-03-06T01:10:32.716Z,94.00
2019-03-06T01:11:32.684Z,94.31
2019-03-06T01:12:32.674Z,94.42
2019-03-06T01:13:32.644Z,94.06
2019-03-06T01:14:32.576Z,94.27
2019-03-06T01:15:33.291Z,94.73
2019-03-06T01:16:33.290Z,95.25
2019-03-06T01:17:32.499Z,94.27
2019-03-06T01:18:33.294Z,94.73
2019-03-06T01:19:33.295Z,94.58
2019-03-06T01:20:33.303Z,94.27
2019-03-06T01:21:32.332Z,94.37
2019-03-06T01:22:32.328Z,94.37
2019-03-06T01:23:32.259Z,94.06
2019-03-06T01:24:32.789Z,93.75
2019-03-06T01:25:32.189Z,93.44
2019-03-06T01:26:32.156Z,93.23
2019-03-06T01:27:32.142Z,93.75
2019-03-06T01:28:32.086Z,94.37
2019-03-06T01:29:32.041Z,93.75
2019-03-06T01:30:32.007Z,94.48
2019-03-06T01:31:32.790Z,93.96
2019-03-06T01:32:31.966Z,93.96
2019-03-06T01:33:31.905Z,93.85
2019-03-06T01:34:31.868Z,93.96
2019-03-06T01:35:31.837Z,93.96
2019-03-06T01:36:32.293Z,93.65
2019-03-06T01:37:31.850Z,94.06
2019-03-06T01:38:31.728Z,94.17
2019-03-06T01:39:31.692Z,93.54
2019-03-06T01:40:31.652Z,94.06
2019-03-06T01:41:31.617Z,93.85
2019-03-06T01:42:31.580Z,93.65
2019-03-06T01:43:31.574Z,94.48
2019-03-06T01:44:31.521Z,93.96
2019-03-06T01:45:31.492Z,93.75
2019-03-06T01:46:31.445Z,93.90
2019-03-06T01:47:31.413Z,93.44
2019-03-06T01:48:31.416Z,93.59
2019-03-06T01:49:31.335Z,93.48
2019-03-06T01:50:31.329Z,93.75
2019-03-06T01:51:31.264Z,93.27
2019-03-06T01:52:31.225Z,93.69
2019-03-06T01:53:31.223Z,93.48
2019-03-06T01:54:31.158Z,94.06
2019-03-06T01:55:31.799Z,94.73
2019-03-06T01:56:31.082Z,93.59
2019-03-06T01:57:31.795Z,94.10
2019-03-06T01:58:31.327Z,94.21
2019-03-06T01:59:30.981Z,94.42
2019-03-06T02:00:30.953Z,94.42
2019-03-06T02:01:30.904Z,94.42
2019-03-06T02:02:31.021Z,93.79
2019-03-06T02:03:30.861Z,93.69
2019-03-06T02:04:30.800Z,94.21
2019-03-06T02:05:30.761Z,93.90
2019-03-06T02:06:30.723Z,94.63
2019-03-06T02:07:30.689Z,94.42
2019-03-06T02:08:30.829Z,94.21
2019-03-06T02:09:30.618Z,94.15
2019-03-06T02:10:31.293Z,94.21
2019-03-06T02:11:30.547Z,94.31
2019-03-06T02:12:30.508Z,93.59
2019-03-06T02:13:30.824Z,94.10
2019-03-06T02:14:30.456Z,93.79
2019-03-06T02:15:31.292Z,94.10
2019-03-06T02:16:30.373Z,94.73
2019-03-06T02:17:30.331Z,94.04
2019-03-06T02:18:30.325Z,94.67
2019-03-06T02:19:30.258Z,94.04
2019-03-06T02:20:30.226Z,94.04
2019-03-06T02:21:30.794Z,93.94
2019-03-06T02:22:30.163Z,94.15
2019-03-06T02:23:30.341Z,94.67
2019-03-06T02:24:30.796Z,94.67
2019-03-06T02:25:30.048Z,94.98
2019-03-06T02:26:30.013Z,94.98
2019-03-06T02:27:30.793Z,94.88
2019-03-06T02:28:29.946Z,94.88
2019-03-06T02:29:29.927Z,94.57
2019-03-06T02:30:30.799Z,95.03
2019-03-06T02:31:29.833Z,95.23
2019-03-06T02:32:29.795Z,94.92
2019-03-06T02:33:29.757Z,94.82
2019-03-06T02:34:29.750Z,95.34
2019-03-06T02:35:29.701Z,95.23
2019-03-06T02:36:29.653Z,94.92
2019-03-06T02:37:30.303Z,95.23
2019-03-06T02:38:29.577Z,95.13
2019-03-06T02:39:29.569Z,95.03
2019-03-06T02:40:29.508Z,95.13
2019-03-06T02:41:29.476Z,95.34
2019-03-06T02:42:31.848Z,95.23
2019-03-06T02:43:50.450Z,95.13
2019-03-06T02:44:29.413Z,95.23
2019-03-06T02:45:30.304Z,95.19
2019-03-06T02:46:29.332Z,95.09
2019-03-06T02:47:29.325Z,95.23
2019-03-06T02:48:29.225Z,94.78
2019-03-06T02:49:29.348Z,94.46
2019-03-06T02:50:29.833Z,94.78
2019-03-06T02:51:32.261Z,94.57
2019-03-06T02:52:29.798Z,94.98
2019-03-06T02:53:29.842Z,95.13
2019-03-06T02:54:29.023Z,95.09
2019-03-06T02:55:28.967Z,94.98
2019-03-06T02:56:28.957Z,95.29
2019-03-06T02:57:28.973Z,94.98
2019-03-06T02:58:28.861Z,95.29
2019-03-06T02:59:28.846Z,95.09
2019-03-06T03:00:28.810Z,95.23
2019-03-06T03:01:28.762Z,95.03
2019-03-06T03:02:28.714Z,95.55
2019-03-06T03:03:28.683Z,95.55
2019-03-06T03:04:28.685Z,95.76
2019-03-06T03:05:28.629Z,95.44
2019-03-06T03:06:28.567Z,95.34
2019-03-06T03:07:29.240Z,95.13
2019-03-06T03:08:28.500Z,95.03
2019-03-06T03:09:28.484Z,95.13
2019-03-06T03:10:28.425Z,95.03
2019-03-06T03:11:28.391Z,95.23
2019-03-06T03:12:28.353Z,94.92
2019-03-06T03:13:28.333Z,95.38
2019-03-06T03:14:28.348Z,95.03
2019-03-06T03:15:28.279Z,95.90
2019-03-06T03:16:28.812Z,95.70
2019-03-06T03:17:28.178Z,95.70
2019-03-06T03:18:28.150Z,95.28
2019-03-06T03:19:28.103Z,95.53
2019-03-06T03:20:28.090Z,95.84
2019-03-06T03:21:28.054Z,95.95
2019-03-06T03:22:28.058Z,96.05
2019-03-06T03:23:27.960Z,95.95
2019-03-06T03:24:28.832Z,96.05
2019-03-06T03:25:27.973Z,97.10
2019-03-06T03:26:28.801Z,96.89
2019-03-06T03:27:27.845Z,96.89
2019-03-06T03:28:27.776Z,97.20
2019-03-06T03:29:27.777Z,97.31
2019-03-06T03:30:27.739Z,97.52
2019-03-06T03:31:27.681Z,96.84
2019-03-06T03:32:28.322Z,97.00
2019-03-06T03:33:27.632Z,97.00
2019-03-06T03:34:27.570Z,97.10
2019-03-06T03:35:29.885Z,96.89
2019-03-06T03:36:28.257Z,96.68
2019-03-06T03:37:27.453Z,96.68
2019-03-06T03:38:27.419Z,97.20
2019-03-06T03:39:27.460Z,97.52
2019-03-06T03:40:28.765Z,97.00
2019-03-06T03:41:27.324Z,97.00
2019-03-06T03:42:27.269Z,97.20
2019-03-06T03:43:28.257Z,97.31
2019-03-06T03:44:27.816Z,97.20
2019-03-06T03:45:27.204Z,97.52
2019-03-06T03:46:27.210Z,97.52
2019-03-06T03:47:27.111Z,97.31
2019-03-06T03:48:27.815Z,97.52
2019-03-06T03:49:27.985Z,97.94
2019-03-06T03:50:27.012Z,97.62
2019-03-06T03:51:26.956Z,97.41
2019-03-06T03:52:26.905Z,97.41
2019-03-06T03:53:27.716Z,97.41
2019-03-06T03:54:28.945Z,97.72
2019-03-06T03:55:28.983Z,97.72
2019-03-06T03:56:32.725Z,97.83
2019-03-06T03:57:26.730Z,97.83
2019-03-06T03:58:27.356Z,97.72
2019-03-06T03:59:27.310Z,97.62
2019-03-06T04:00:26.652Z,97.52
2019-03-06T04:01:26.582Z,97.41
2019-03-06T04:02:26.551Z,97.62
2019-03-06T04:03:27.822Z,97.41
2019-03-06T04:04:26.470Z,97.41
2019-03-06T04:05:26.572Z,97.56
2019-03-06T04:06:27.304Z,97.83
2019-03-06T04:07:26.399Z,97.72
2019-03-06T04:08:31.226Z,97.98
2019-03-06T04:09:26.858Z,97.67
2019-03-06T04:10:26.361Z,97.52
2019-03-06T04:11:26.808Z,97.62
2019-03-06T04:12:26.809Z,97.77
2019-03-06T04:13:28.805Z,97.45
2019-03-06T04:14:29.206Z,97.77
2019-03-06T04:15:27.816Z,97.77
2019-03-06T04:16:26.346Z,97.67
2019-03-06T04:17:26.809Z,97.56
2019-03-06T04:18:28.804Z,98.02
2019-03-06T04:19:25.943Z,97.88
2019-03-06T04:20:26.015Z,97.61
2019-03-06T04:21:26.045Z,98.08
2019-03-06T04:22:32.704Z,98.50
2019-03-06T04:23:25.790Z,98.61
2019-03-06T04:24:26.318Z,98.29
2019-03-06T04:25:28.711Z,98.50
2019-03-06T04:26:25.723Z,98.44
2019-03-06T04:27:26.315Z,98.71
2019-03-06T04:28:27.917Z,98.19
2019-03-06T04:29:25.567Z,98.29
2019-03-06T04:30:25.528Z,98.24
2019-03-06T04:31:25.524Z,98.34
2019-03-06T04:32:25.458Z,98.24
2019-03-06T04:33:25.424Z,98.34
2019-03-06T04:34:25.418Z,98.39
2019-03-06T04:35:25.353Z,98.29
2019-03-06T04:36:25.351Z,98.19
2019-03-06T04:37:25.274Z,98.19
2019-03-06T04:38:25.808Z,97.98
2019-03-06T04:39:25.209Z,98.34
2019-03-06T04:40:25.169Z,98.34
2019-03-06T04:41:25.158Z,97.81
2019-03-06T04:42:25.811Z,98.02
2019-03-06T04:43:25.057Z,98.75
2019-03-06T04:44:25.028Z,98.24
2019-03-06T04:45:24.984Z,98.34
2019-03-06T04:46:24.976Z,98.13
2019-03-06T04:47:24.919Z,98.28
2019-03-06T04:48:24.882Z,98.24
2019-03-06T04:49:24.842Z,97.92
2019-03-06T04:50:24.801Z,98.07
2019-03-06T04:51:24.842Z,98.49
2019-03-06T04:52:24.735Z,98.07
2019-03-06T04:53:24.702Z,98.69
2019-03-06T04:54:24.659Z,98.38
2019-03-06T04:55:24.627Z,98.91
2019-03-06T04:56:24.610Z,98.80
2019-03-06T04:57:24.548Z,98.80
2019-03-06T04:58:26.313Z,98.86
2019-03-06T04:59:24.476Z,98.86
2019-03-06T05:00:24.461Z,98.86
2019-03-06T05:01:24.428Z,99.07
2019-03-06T05:02:25.325Z,99.18
2019-03-06T05:03:24.330Z,99.07
2019-03-06T05:04:24.295Z,98.97
2019-03-06T05:05:24.253Z,99.18
2019-03-06T05:06:24.250Z,99.01
2019-03-06T05:07:24.191Z,98.80
2019-03-06T05:08:24.814Z,98.75
2019-03-06T05:09:24.112Z,98.69
2019-03-06T05:10:24.080Z,98.91
2019-03-06T05:11:24.196Z,98.80
2019-03-06T05:12:23.995Z,98.80
2019-03-06T05:13:25.324Z,98.80
2019-03-06T05:14:23.929Z,98.80
2019-03-06T05:15:23.889Z,99.43
2019-03-06T05:16:23.852Z,99.43
2019-03-06T05:17:24.339Z,99.11
2019-03-06T05:18:23.777Z,99.43
2019-03-06T05:19:23.742Z,99.11
2019-03-06T05:20:23.706Z,99.38
2019-03-06T05:21:23.670Z,99.38
2019-03-06T05:22:23.656Z,99.22
2019-03-06T05:23:23.593Z,99.54
2019-03-06T05:24:23.562Z,98.91
2019-03-06T05:25:23.527Z,99.11
2019-03-06T05:26:23.485Z,99.43
2019-03-06T05:27:23.848Z,99.43
2019-03-06T05:28:23.420Z,99.85
2019-03-06T05:29:23.379Z,99.64
2019-03-06T05:30:23.338Z,99.43
2019-03-06T05:31:23.304Z,99.70
2019-03-06T05:32:23.299Z,99.49
2019-03-06T05:33:23.241Z,99.43
2019-03-06T05:34:23.809Z,99.59
2019-03-06T05:35:23.153Z,99.49
2019-03-06T05:36:23.124Z,99.43
2019-03-06T05:37:23.108Z,99.99
2019-03-06T05:38:23.043Z,99.54
2019-03-06T05:39:23.005Z,99.64
2019-03-06T05:40:22.970Z,99.64
2019-03-06T05:41:22.933Z,99.64
2019-03-06T05:42:23.337Z,99.85
2019-03-06T05:43:22.862Z,99.70
2019-03-06T05:44:22.824Z,99.70
2019-03-06T05:45:22.849Z,99.59
2019-03-06T05:46:23.303Z,99.38
2019-03-06T05:47:22.735Z,99.64
2019-03-06T05:48:22.675Z,99.49
2019-03-06T05:49:22.639Z,99.70
2019-03-06T05:50:23.303Z,99.49
2019-03-06T05:51:22.567Z,99.49
2019-03-06T05:52:22.530Z,99.59
2019-03-06T05:53:22.515Z,99.59
2019-03-06T05:54:22.466Z,99.59
2019-03-06T05:55:22.419Z,99.70
2019-03-06T05:56:22.383Z,99.80
2019-03-06T05:57:22.353Z,99.59
2019-03-06T05:58:22.334Z,99.59
2019-03-06T05:59:22.273Z,99.59
2019-03-06T06:00:22.238Z,99.80
2019-03-06T06:01:22.206Z,99.76
2019-03-06T06:02:22.165Z,99.65
2019-03-06T06:03:22.150Z,99.55
2019-03-06T06:04:22.096Z,99.65
2019-03-06T06:05:22.058Z,99.34
2019-03-06T06:06:22.806Z,99.44
2019-03-06T06:07:22.101Z,99.65
2019-03-06T06:08:22.001Z,99.65
2019-03-06T06:09:31.311Z,99.44
2019-03-06T06:10:22.820Z,99.44
2019-03-06T06:11:22.823Z,99.65
2019-03-06T06:12:21.799Z,99.55
2019-03-06T06:13:21.798Z,99.40
2019-03-06T06:14:22.326Z,99.71
2019-03-06T06:15:21.693Z,99.51
2019-03-06T06:16:22.320Z,99.29
2019-03-06T06:17:21.622Z,99.92
2019-03-06T06:18:22.232Z,99.29
2019-03-06T06:19:21.544Z,99.19
2019-03-06T06:20:21.514Z,99.29
2019-03-06T06:21:22.335Z,99.29
2019-03-06T06:22:21.436Z,99.19
2019-03-06T06:23:21.423Z,99.19
2019-03-06T06:24:21.362Z,99.29
2019-03-06T06:25:21.323Z,99.29
2019-03-06T06:26:21.822Z,98.88
2019-03-06T06:27:21.824Z,99.29
2019-03-06T06:28:21.254Z,99.29
2019-03-06T06:29:21.189Z,99.19
2019-03-06T06:30:22.136Z,99.29
2019-03-06T06:31:21.822Z,99.04
2019-03-06T06:32:21.068Z,98.88
2019-03-06T06:33:21.114Z,99.25
2019-03-06T06:34:21.000Z,99.04
2019-03-06T06:35:21.824Z,98.52
2019-03-06T06:36:20.938Z,98.72
2019-03-06T06:37:21.824Z,98.72
2019-03-06T06:38:20.882Z,98.26
2019-03-06T06:39:20.843Z,98.58
2019-03-06T06:40:20.797Z,98.16
2019-03-06T06:41:20.756Z,98.32
2019-03-06T06:42:21.320Z,98.53
2019-03-06T06:43:20.673Z,98.32
2019-03-06T06:44:20.666Z,98.18
2019-03-06T06:45:20.606Z,98.07
2019-03-06T06:46:20.566Z,97.97
2019-03-06T06:47:21.326Z,98.02
2019-03-06T06:48:20.507Z,97.97
2019-03-06T06:49:20.489Z,98.13
2019-03-06T06:50:20.422Z,97.30
2019-03-06T06:51:20.386Z,97.30
2019-03-06T06:52:21.337Z,97.35
2019-03-06T06:53:20.338Z,97.46
2019-03-06T06:54:20.354Z,97.46
2019-03-06T06:55:20.271Z,97.25
2019-03-06T06:56:20.825Z,96.89
2019-03-06T06:57:20.170Z,96.79
2019-03-06T06:58:20.185Z,96.37
2019-03-06T06:59:21.229Z,96.79
2019-03-06T07:00:20.823Z,97.00
2019-03-06T07:01:20.032Z,96.95
2019-03-06T07:02:19.993Z,97.00
2019-03-06T07:03:19.958Z,96.22
2019-03-06T07:04:20.356Z,96.33
2019-03-06T07:05:19.892Z,96.64
2019-03-06T07:06:19.867Z,95.91
2019-03-06T07:07:19.878Z,95.81
2019-03-06T07:08:19.781Z,95.70
2019-03-06T07:09:19.788Z,95.50
2019-03-06T07:10:19.723Z,95.35
2019-03-06T07:11:20.324Z,95.76
2019-03-06T07:12:20.328Z,95.76
2019-03-06T07:13:19.607Z,95.76
2019-03-06T07:14:20.327Z,95.14
2019-03-06T07:15:19.697Z,95.30
2019-03-06T07:16:20.325Z,94.64
2019-03-06T07:17:19.465Z,94.43
2019-03-06T07:18:19.434Z,93.91
2019-03-06T07:19:19.397Z,93.80
2019-03-06T07:20:19.866Z,94.12
2019-03-06T07:21:19.334Z,93.76
2019-03-06T07:22:19.337Z,93.24
2019-03-06T07:23:19.260Z,93.51
2019-03-06T07:24:19.225Z,92.88
2019-03-06T07:25:19.287Z,93.10
2019-03-06T07:26:19.159Z,92.88
2019-03-06T07:27:19.122Z,92.78
2019-03-06T07:28:19.087Z,92.68
2019-03-06T07:29:19.054Z,92.63
2019-03-06T07:30:19.046Z,92.68
2019-03-06T07:31:19.825Z,92.63
2019-03-06T07:32:19.830Z,92.43
2019-03-06T07:33:19.831Z,92.36
2019-03-06T07:34:19.827Z,91.74
2019-03-06T07:35:18.876Z,91.95
2019-03-06T07:36:18.808Z,91.95
2019-03-06T07:37:28.103Z,91.53
2019-03-06T07:38:18.742Z,92.05
2019-03-06T07:39:18.785Z,91.80
2019-03-06T07:40:18.707Z,91.08
2019-03-06T07:41:18.641Z,91.74
2019-03-06T07:42:18.618Z,91.70
2019-03-06T07:43:18.571Z,91.53
2019-03-06T07:44:18.538Z,91.08
2019-03-06T07:45:18.541Z,90.87
2019-03-06T07:46:18.471Z,90.14
2019-03-06T07:47:18.439Z,89.94
2019-03-06T07:48:19.326Z,90.45
2019-03-06T07:49:18.365Z,90.66
2019-03-06T07:50:18.332Z,90.04
2019-03-06T07:51:18.322Z,89.83
2019-03-06T07:52:18.281Z,89.89
2019-03-06T07:53:18.232Z,90.52
2019-03-06T07:54:18.207Z,90.41
2019-03-06T07:55:18.160Z,90.83
2019-03-06T07:56:18.360Z,91.18
2019-03-06T07:57:18.091Z,90.31
2019-03-06T07:58:18.833Z,89.89
2019-03-06T07:59:18.029Z,89.89
2019-03-06T08:00:17.989Z,89.65
2019-03-06T08:01:18.363Z,90.06
2019-03-06T08:02:18.830Z,89.29
2019-03-06T08:03:17.892Z,88.78
2019-03-06T08:04:18.831Z,88.98
2019-03-06T08:05:18.328Z,88.67
2019-03-06T08:06:17.792Z,88.42
2019-03-06T08:07:17.782Z,87.49
2019-03-06T08:08:17.717Z,87.35
2019-03-06T08:09:17.687Z,87.14
2019-03-06T08:10:17.650Z,86.72
2019-03-06T08:11:17.615Z,87.30
2019-03-06T08:12:17.604Z,87.30
2019-03-06T08:13:18.329Z,86.07
2019-03-06T08:14:22.317Z,86.68
2019-03-06T08:15:17.482Z,86.96
2019-03-06T08:16:18.350Z,86.23
2019-03-06T08:17:17.435Z,86.33
2019-03-06T08:18:18.330Z,85.50
2019-03-06T08:19:17.347Z,85.92
2019-03-06T08:20:17.314Z,86.02
2019-03-06T08:21:17.279Z,86.13
2019-03-06T08:22:18.382Z,85.61
2019-03-06T08:23:17.213Z,86.13
2019-03-06T08:24:17.181Z,86.17
2019-03-06T08:25:17.168Z,85.55
2019-03-06T08:26:17.130Z,85.86
2019-03-06T08:27:17.841Z,85.71
2019-03-06T08:28:17.409Z,85.19
2019-03-06T08:29:17.830Z,85.30
2019-03-06T08:30:17.829Z,85.50
2019-03-06T08:31:16.962Z,84.12
2019-03-06T08:32:17.836Z,85.40
2019-03-06T08:33:18.415Z,83.29
2019-03-06T08:34:16.855Z,85.22
2019-03-06T08:35:17.337Z,84.08
2019-03-06T08:36:18.739Z,85.74
2019-03-06T08:37:17.580Z,84.50
2019-03-06T08:38:16.751Z,84.15
2019-03-06T08:39:16.687Z,84.05
2019-03-06T08:40:16.654Z,83.56
2019-03-06T08:41:16.619Z,82.39
2019-03-06T08:42:16.583Z,82.29
2019-03-06T08:43:16.573Z,81.94
2019-03-06T08:44:16.520Z,81.63
2019-03-06T08:45:16.485Z,80.84
2019-03-06T08:46:16.458Z,80.49
2019-03-06T08:47:16.416Z,81.32
2019-03-06T08:48:16.418Z,80.90
2019-03-06T08:49:16.360Z,80.90
2019-03-06T08:50:16.322Z,82.00
2019-03-06T08:51:16.288Z,82.83
2019-03-06T08:52:16.255Z,81.90
2019-03-06T08:53:16.248Z,80.56
2019-03-06T08:54:16.194Z,79.32
2019-03-06T08:55:16.168Z,79.32
2019-03-06T08:56:16.127Z,78.80
2019-03-06T08:57:16.094Z,79.42
2019-03-06T08:58:16.384Z,78.91
2019-03-06T08:59:16.025Z,79.42
2019-03-06T09:00:16.006Z,80.76
2019-03-06T09:01:15.966Z,79.59
2019-03-06T09:02:15.990Z,79.80
2019-03-06T09:03:16.835Z,78.77
2019-03-06T09:04:15.891Z,79.08
2019-03-06T09:05:15.834Z,78.31
2019-03-06T09:06:15.802Z,79.76
2019-03-06T09:07:15.764Z,77.97
2019-03-06T09:08:15.733Z,77.76
2019-03-06T09:09:15.734Z,76.84
2019-03-06T09:10:15.675Z,76.73
2019-03-06T09:11:16.336Z,77.35
2019-03-06T09:12:15.606Z,77.73
2019-03-06T09:13:16.341Z,78.24
2019-03-06T09:14:15.573Z,78.04
2019-03-06T09:15:15.515Z,77.52
2019-03-06T09:16:15.484Z,78.14
2019-03-06T09:17:15.446Z,77.69
2019-03-06T09:18:15.417Z,78.93
2019-03-06T09:19:15.407Z,78.07
2019-03-06T09:20:15.352Z,76.66
2019-03-06T09:21:15.319Z,75.60
2019-03-06T09:22:15.843Z,76.42
2019-03-06T09:23:22.799Z,74.74
2019-03-06T09:24:15.228Z,74.84
2019-03-06T09:25:15.222Z,74.12
2019-03-06T09:26:15.166Z,73.57
2019-03-06T09:27:15.142Z,75.84
2019-03-06T09:28:15.101Z,73.26
2019-03-06T09:29:15.065Z,73.47
2019-03-06T09:30:16.214Z,73.16
2019-03-06T09:31:15.840Z,74.29
2019-03-06T09:32:14.973Z,73.47
2019-03-06T09:33:14.943Z,73.44
2019-03-06T09:34:14.918Z,73.54
2019-03-06T09:35:14.906Z,73.44
2019-03-06T09:36:14.852Z,72.27
2019-03-06T09:37:14.815Z,73.50
2019-03-06T09:38:14.797Z,73.50
2019-03-06T09:39:14.817Z,70.94
2019-03-06T09:40:14.756Z,70.25
2019-03-06T09:41:14.696Z,70.42
2019-03-06T09:42:14.666Z,72.78
2019-03-06T09:43:15.341Z,71.66
2019-03-06T09:44:14.634Z,72.85
2019-03-06T09:45:14.608Z,71.41
2019-03-06T09:46:14.554Z,71.41
2019-03-06T09:47:15.348Z,69.53
2019-03-06T09:48:14.475Z,70.08
2019-03-06T09:49:17.748Z,69.56
2019-03-06T09:50:14.442Z,70.04
2019-03-06T09:51:14.386Z,69.26
2019-03-06T09:52:15.347Z,69.12
2019-03-06T09:53:14.322Z,69.74
2019-03-06T09:54:14.294Z,70.56
2019-03-06T09:55:14.294Z,69.05
2019-03-06T09:56:14.797Z,69.23
2019-03-06T09:57:14.209Z,69.94
2019-03-06T09:58:14.170Z,68.71
2019-03-06T09:59:14.858Z,69.74
2019-03-06T10:00:14.380Z,68.71
2019-03-06T10:01:14.089Z,68.71
2019-03-06T10:02:14.049Z,68.06
2019-03-06T10:03:14.844Z,67.44
2019-03-06T10:04:13.998Z,68.68
2019-03-06T10:05:13.985Z,68.68
2019-03-06T10:06:13.956Z,67.62
2019-03-06T10:07:13.919Z,69.06
2019-03-06T10:08:13.868Z,68.06
2019-03-06T10:09:13.837Z,66.80
2019-03-06T10:10:14.366Z,68.24
2019-03-06T10:11:17.223Z,68.03
2019-03-06T10:12:14.351Z,66.70
2019-03-06T10:13:13.723Z,66.56
2019-03-06T10:14:13.684Z,67.38
2019-03-06T10:15:13.655Z,65.84
2019-03-06T10:16:13.647Z,66.16
2019-03-06T10:17:13.597Z,64.20
2019-03-06T10:18:13.588Z,64.82
2019-03-06T10:19:13.536Z,65.23
2019-03-06T10:20:13.506Z,64.20
2019-03-06T10:21:13.499Z,64.89
2019-03-06T10:22:14.350Z,66.33
2019-03-06T10:23:13.417Z,66.63
2019-03-06T10:24:13.390Z,63.97
2019-03-06T10:25:13.386Z,64.28
2019-03-06T10:26:13.394Z,63.12
2019-03-06T10:27:13.847Z,62.51
2019-03-06T10:28:13.266Z,63.32
2019-03-06T10:29:14.756Z,63.70
2019-03-06T10:30:13.278Z,63.37
2019-03-06T10:31:13.210Z,63.17
2019-03-06T10:32:13.870Z,63.17
2019-03-06T10:33:13.127Z,63.24
2019-03-06T10:34:13.863Z,62.70
2019-03-06T10:35:13.063Z,62.11
2019-03-06T10:36:13.053Z,60.47
2019-03-06T10:37:13.034Z,61.88
2019-03-06T10:38:16.571Z,59.86
2019-03-06T10:39:12.956Z,59.04
2019-03-06T10:40:12.914Z,60.06
2019-03-06T10:41:12.892Z,59.73
2019-03-06T10:42:12.885Z,59.12
2019-03-06T10:43:12.828Z,59.01
2019-03-06T10:44:12.812Z,58.81
2019-03-06T10:45:12.772Z,60.03
2019-03-06T10:46:12.746Z,60.42
2019-03-06T10:47:12.737Z,58.78
2019-03-06T10:48:13.354Z,57.58
2019-03-06T10:49:12.655Z,56.74
2019-03-06T10:50:12.637Z,57.45
2019-03-06T10:51:12.601Z,56.23
2019-03-06T10:52:12.895Z,56.94
2019-03-06T10:53:12.544Z,56.46
2019-03-06T10:54:12.521Z,55.82
2019-03-06T10:55:12.487Z,54.90
2019-03-06T10:56:12.459Z,54.97
2019-03-06T10:57:12.461Z,53.88
2019-03-06T10:58:12.403Z,54.57
2019-03-06T10:59:13.411Z,55.38
2019-03-06T11:00:12.360Z,54.46
2019-03-06T11:01:12.319Z,53.92
2019-03-06T11:02:12.299Z,54.64
2019-03-06T11:03:12.444Z,53.92
2019-03-06T11:04:12.238Z,53.62
2019-03-06T11:05:12.217Z,52.52
2019-03-06T11:06:12.196Z,52.72
2019-03-06T11:07:12.155Z,52.62
2019-03-06T11:08:12.151Z,53.75
2019-03-06T11:09:12.097Z,54.23
2019-03-06T11:10:12.070Z,53.59
2019-03-06T11:11:12.044Z,52.58
2019-03-06T11:12:12.008Z,54.18
2019-03-06T11:13:12.010Z,53.67
2019-03-06T11:14:11.957Z,52.88
2019-03-06T11:15:11.927Z,53.67
2019-03-06T11:16:11.986Z,54.28
2019-03-06T11:17:11.887Z,54.39
2019-03-06T11:18:12.781Z,53.57
2019-03-06T11:19:12.408Z,53.24
2019-03-06T11:20:11.790Z,51.63
2019-03-06T11:21:11.763Z,52.96
2019-03-06T11:22:11.734Z,52.62
2019-03-06T11:23:11.733Z,52.32
2019-03-06T11:24:11.701Z,52.48
2019-03-06T11:25:11.648Z,51.86
2019-03-06T11:26:12.273Z,52.55
2019-03-06T11:27:11.599Z,52.12
2019-03-06T11:28:11.898Z,50.70
2019-03-06T11:29:11.558Z,51.31
2019-03-06T11:30:12.368Z,51.81
2019-03-06T11:31:11.487Z,50.92
2019-03-06T11:32:12.601Z,51.43
2019-03-06T11:33:11.464Z,51.43
2019-03-06T11:34:12.375Z,50.01
2019-03-06T11:35:11.385Z,50.82
2019-03-06T11:36:13.270Z,51.43
2019-03-06T11:37:11.865Z,50.59
2019-03-06T11:38:11.335Z,51.81
2019-03-06T11:39:11.275Z,51.61
2019-03-06T11:40:11.249Z,52.43
2019-03-06T11:41:11.220Z,51.89
2019-03-06T11:42:16.771Z,50.87
2019-03-06T11:43:11.197Z,50.47
2019-03-06T11:44:11.157Z,51.72
2019-03-06T11:45:11.110Z,50.70
2019-03-06T11:46:11.089Z,51.64
2019-03-06T11:47:11.064Z,51.84
2019-03-06T11:48:11.072Z,51.53
2019-03-06T11:49:11.006Z,52.37
2019-03-06T11:50:10.977Z,52.50
2019-03-06T11:51:10.956Z,53.52
2019-03-06T11:52:11.119Z,53.59
2019-03-06T11:53:10.898Z,53.80
2019-03-06T11:54:10.896Z,53.62
2019-03-06T11:55:10.842Z,53.83
2019-03-06T11:56:10.814Z,55.05
2019-03-06T11:57:10.784Z,54.44
2019-03-06T11:58:10.759Z,53.96
2019-03-06T11:59:10.765Z,53.75
2019-03-06T12:00:10.709Z,54.05
2019-03-06T12:01:10.680Z,55.10
2019-03-06T12:02:10.659Z,55.10
2019-03-06T12:03:10.620Z,56.23
2019-03-06T12:04:10.643Z,55.71
2019-03-06T12:05:10.640Z,55.91
2019-03-06T12:06:10.541Z,55.89
2019-03-06T12:07:10.532Z,54.90
2019-03-06T12:08:12.277Z,55.28
2019-03-06T12:09:10.481Z,55.89
2019-03-06T12:10:10.429Z,55.15
2019-03-06T12:11:10.398Z,54.54
2019-03-06T12:12:10.370Z,54.64
2019-03-06T12:13:10.346Z,54.33
2019-03-06T12:14:10.409Z,55.84
2019-03-06T12:15:10.287Z,54.39
2019-03-06T12:16:10.261Z,54.49
2019-03-06T12:17:10.230Z,54.39
2019-03-06T12:18:10.347Z,54.39
2019-03-06T12:19:10.195Z,53.34
2019-03-06T12:20:10.150Z,53.67
2019-03-06T12:21:10.121Z,54.26
2019-03-06T12:22:10.873Z,53.44
2019-03-06T12:23:10.068Z,54.05
2019-03-06T12:24:10.058Z,54.18
2019-03-06T12:25:10.031Z,54.46
2019-03-06T12:26:09.986Z,54.57
2019-03-06T12:27:09.958Z,54.13
2019-03-06T12:28:09.946Z,54.33
2019-03-06T12:29:09.904Z,54.21
2019-03-06T12:30:09.911Z,53.90
2019-03-06T12:31:09.860Z,53.06
2019-03-06T12:32:09.822Z,54.26
2019-03-06T12:33:09.795Z,53.27
2019-03-06T12:34:09.768Z,52.35
2019-03-06T12:35:09.910Z,53.59
2019-03-06T12:36:10.383Z,53.59
2019-03-06T12:37:09.691Z,53.39
2019-03-06T12:38:10.908Z,54.11
2019-03-06T12:39:09.636Z,53.59
2019-03-06T12:40:13.070Z,53.88
2019-03-06T12:41:09.581Z,53.57
2019-03-06T12:42:14.384Z,52.56
2019-03-06T12:43:09.533Z,53.47
2019-03-06T12:44:10.816Z,52.48
2019-03-06T12:45:09.498Z,54.00
2019-03-06T12:46:09.450Z,53.27
2019-03-06T12:47:10.901Z,53.96
2019-03-06T12:48:09.401Z,52.63
2019-03-06T12:49:09.373Z,52.63
2019-03-06T12:50:09.375Z,52.33
2019-03-06T12:51:09.325Z,52.43
2019-03-06T12:52:09.880Z,53.27